sensor_id;sensor_type;location;lat;lon;timestamp;P1;durP1;ratioP1;P2;durP2;ratioP2
46000;SDS011;72226;48.272;11.180;2024-03-17T00:01:03;2.42;;;2.08;;
46000;SDS011;72226;48.272;11.180;2024-03-17T00:03:29;2.15;;;1.73;;
46000;SDS011;72226;48.272;11.180;2024-03-17T00:05:58;2.47;;;2.28;;
46000;SDS011;72226;48.272;11.180;2024-03-17T00:08:23;2.08;;;1.85;;
46000;SDS011;72226;48.272;11.180;2024-03-17T00:10:52;3.50;;;2.47;;
46000;SDS011;72226;48.272;11.180;2024-03-17T00:13:17;2.67;;;2.17;;
46000;SDS011;72226;48.272;11.180;2024-03-17T00:15:43;1.88;;;1.73;;
46000;SDS011;72226;48.272;11.180;2024-03-17T00:18:08;3.63;;;2.45;;
46000;SDS011;72226;48.272;11.180;2024-03-17T00:20:33;2.97;;;2.13;;
46000;SDS011;72226;48.272;11.180;2024-03-17T00:22:59;4.57;;;3.08;;
46000;SDS011;72226;48.272;11.180;2024-03-17T00:25:24;2.83;;;2.50;;
46000;SDS011;72226;48.272;11.180;2024-03-17T00:27:49;2.47;;;1.80;;
46000;SDS011;72226;48.272;11.180;2024-03-17T00:30:15;3.70;;;2.25;;
46000;SDS011;72226;48.272;11.180;2024-03-17T00:32:41;3.15;;;2.10;;
46000;SDS011;72226;48.272;11.180;2024-03-17T00:35:07;2.35;;;2.13;;
46000;SDS011;72226;48.272;11.180;2024-03-17T00:37:32;2.80;;;2.30;;
46000;SDS011;72226;48.272;11.180;2024-03-17T00:39:58;2.20;;;1.90;;
46000;SDS011;72226;48.272;11.180;2024-03-17T00:42:24;4.88;;;2.88;;
46000;SDS011;72226;48.272;11.180;2024-03-17T00:44:49;2.20;;;1.55;;
46000;SDS011;72226;48.272;11.180;2024-03-17T00:47:14;2.83;;;2.10;;
46000;SDS011;72226;48.272;11.180;2024-03-17T00:49:39;2.55;;;2.00;;
46000;SDS011;72226;48.272;11.180;2024-03-17T00:52:05;3.05;;;1.90;;
46000;SDS011;72226;48.272;11.180;2024-03-17T00:54:30;3.67;;;2.25;;
46000;SDS011;72226;48.272;11.180;2024-03-17T00:56:55;3.28;;;1.88;;
46000;SDS011;72226;48.272;11.180;2024-03-17T00:59:21;3.35;;;2.60;;
46000;SDS011;72226;48.272;11.180;2024-03-17T01:01:46;6.90;;;2.92;;
46000;SDS011;72226;48.272;11.180;2024-03-17T01:04:11;5.30;;;3.72;;
46000;SDS011;72226;48.272;11.180;2024-03-17T01:06:36;4.47;;;2.45;;
46000;SDS011;72226;48.272;11.180;2024-03-17T01:09:05;3.72;;;2.38;;
46000;SDS011;72226;48.272;11.180;2024-03-17T01:11:30;4.82;;;2.90;;
46000;SDS011;72226;48.272;11.180;2024-03-17T01:13:56;5.80;;;2.17;;
46000;SDS011;72226;48.272;11.180;2024-03-17T01:16:21;3.15;;;2.45;;
46000;SDS011;72226;48.272;11.180;2024-03-17T01:18:48;3.70;;;2.40;;
46000;SDS011;72226;48.272;11.180;2024-03-17T01:21:13;5.53;;;2.70;;
46000;SDS011;72226;48.272;11.180;2024-03-17T01:23:38;2.85;;;2.58;;
46000;SDS011;72226;48.272;11.180;2024-03-17T01:26:03;3.72;;;3.03;;
46000;SDS011;72226;48.272;11.180;2024-03-17T01:28:29;4.53;;;2.50;;
46000;SDS011;72226;48.272;11.180;2024-03-17T01:30:54;4.30;;;2.67;;
46000;SDS011;72226;48.272;11.180;2024-03-17T01:33:19;4.10;;;2.95;;
46000;SDS011;72226;48.272;11.180;2024-03-17T01:35:45;2.00;;;1.80;;
46000;SDS011;72226;48.272;11.180;2024-03-17T01:38:10;5.78;;;2.13;;
46000;SDS011;72226;48.272;11.180;2024-03-17T01:40:36;5.28;;;2.25;;
46000;SDS011;72226;48.272;11.180;2024-03-17T01:43:01;4.63;;;2.45;;
46000;SDS011;72226;48.272;11.180;2024-03-17T01:45:27;3.63;;;2.20;;
46000;SDS011;72226;48.272;11.180;2024-03-17T01:47:53;2.72;;;2.03;;
46000;SDS011;72226;48.272;11.180;2024-03-17T01:50:19;4.63;;;3.10;;
46000;SDS011;72226;48.272;11.180;2024-03-17T01:52:49;3.33;;;2.60;;
46000;SDS011;72226;48.272;11.180;2024-03-17T01:55:15;5.45;;;3.53;;
46000;SDS011;72226;48.272;11.180;2024-03-17T01:57:40;3.35;;;2.92;;
46000;SDS011;72226;48.272;11.180;2024-03-17T02:00:06;2.65;;;2.30;;
46000;SDS011;72226;48.272;11.180;2024-03-17T02:02:33;3.30;;;2.72;;
46000;SDS011;72226;48.272;11.180;2024-03-17T02:04:58;3.35;;;2.80;;
46000;SDS011;72226;48.272;11.180;2024-03-17T02:07:24;3.83;;;3.08;;
46000;SDS011;72226;48.272;11.180;2024-03-17T02:09:49;3.53;;;2.70;;
46000;SDS011;72226;48.272;11.180;2024-03-17T02:12:15;3.17;;;2.55;;
46000;SDS011;72226;48.272;11.180;2024-03-17T02:14:40;5.45;;;2.97;;
46000;SDS011;72226;48.272;11.180;2024-03-17T02:17:05;4.22;;;2.95;;
46000;SDS011;72226;48.272;11.180;2024-03-17T02:19:30;4.05;;;2.95;;
46000;SDS011;72226;48.272;11.180;2024-03-17T02:21:57;5.93;;;3.03;;
46000;SDS011;72226;48.272;11.180;2024-03-17T02:24:22;4.85;;;3.13;;
46000;SDS011;72226;48.272;11.180;2024-03-17T02:26:47;4.93;;;2.80;;
46000;SDS011;72226;48.272;11.180;2024-03-17T02:29:12;5.40;;;2.63;;
46000;SDS011;72226;48.272;11.180;2024-03-17T02:31:38;3.58;;;3.08;;
46000;SDS011;72226;48.272;11.180;2024-03-17T02:34:03;2.95;;;2.63;;
46000;SDS011;72226;48.272;11.180;2024-03-17T02:36:28;4.10;;;3.17;;
46000;SDS011;72226;48.272;11.180;2024-03-17T02:38:54;5.05;;;3.50;;
46000;SDS011;72226;48.272;11.180;2024-03-17T02:41:37;5.15;;;2.60;;
46000;SDS011;72226;48.272;11.180;2024-03-17T02:44:02;5.90;;;3.28;;
46000;SDS011;72226;48.272;11.180;2024-03-17T02:46:28;5.43;;;2.85;;
46000;SDS011;72226;48.272;11.180;2024-03-17T02:48:54;3.47;;;2.55;;
46000;SDS011;72226;48.272;11.180;2024-03-17T02:51:20;2.65;;;2.45;;
46000;SDS011;72226;48.272;11.180;2024-03-17T02:53:46;4.75;;;2.47;;
46000;SDS011;72226;48.272;11.180;2024-03-17T02:56:12;7.18;;;2.85;;
46000;SDS011;72226;48.272;11.180;2024-03-17T02:58:40;4.15;;;3.72;;
46000;SDS011;72226;48.272;11.180;2024-03-17T03:01:06;4.20;;;3.20;;
46000;SDS011;72226;48.272;11.180;2024-03-17T03:03:32;3.60;;;2.90;;
46000;SDS011;72226;48.272;11.180;2024-03-17T03:05:58;4.43;;;2.67;;
46000;SDS011;72226;48.272;11.180;2024-03-17T03:08:24;2.33;;;2.13;;
46000;SDS011;72226;48.272;11.180;2024-03-17T03:10:49;5.40;;;2.97;;
46000;SDS011;72226;48.272;11.180;2024-03-17T03:13:14;7.05;;;3.35;;
46000;SDS011;72226;48.272;11.180;2024-03-17T03:15:40;4.93;;;2.58;;
46000;SDS011;72226;48.272;11.180;2024-03-17T03:18:05;3.35;;;2.70;;
46000;SDS011;72226;48.272;11.180;2024-03-17T03:20:30;4.45;;;2.47;;
46000;SDS011;72226;48.272;11.180;2024-03-17T03:22:56;4.28;;;3.17;;
46000;SDS011;72226;48.272;11.180;2024-03-17T03:25:21;3.10;;;2.80;;
46000;SDS011;72226;48.272;11.180;2024-03-17T03:27:46;5.28;;;3.22;;
46000;SDS011;72226;48.272;11.180;2024-03-17T03:30:12;4.53;;;2.88;;
46000;SDS011;72226;48.272;11.180;2024-03-17T03:32:37;4.88;;;2.42;;
46000;SDS011;72226;48.272;11.180;2024-03-17T03:35:04;3.42;;;2.83;;
46000;SDS011;72226;48.272;11.180;2024-03-17T03:37:30;3.80;;;2.65;;
46000;SDS011;72226;48.272;11.180;2024-03-17T03:39:55;2.72;;;2.45;;
46000;SDS011;72226;48.272;11.180;2024-03-17T03:42:20;5.22;;;3.17;;
46000;SDS011;72226;48.272;11.180;2024-03-17T03:44:46;4.20;;;2.63;;
46000;SDS011;72226;48.272;11.180;2024-03-17T03:47:14;5.35;;;2.50;;
46000;SDS011;72226;48.272;11.180;2024-03-17T03:49:39;9.38;;;2.92;;
46000;SDS011;72226;48.272;11.180;2024-03-17T03:52:04;3.78;;;2.47;;
46000;SDS011;72226;48.272;11.180;2024-03-17T03:54:30;5.47;;;2.80;;
46000;SDS011;72226;48.272;11.180;2024-03-17T03:56:55;3.75;;;2.78;;
46000;SDS011;72226;48.272;11.180;2024-03-17T03:59:20;2.60;;;2.00;;
46000;SDS011;72226;48.272;11.180;2024-03-17T04:01:46;2.33;;;2.13;;
46000;SDS011;72226;48.272;11.180;2024-03-17T04:04:12;3.28;;;2.95;;
46000;SDS011;72226;48.272;11.180;2024-03-17T04:06:38;3.97;;;2.65;;
46000;SDS011;72226;48.272;11.180;2024-03-17T04:09:03;2.97;;;2.40;;
46000;SDS011;72226;48.272;11.180;2024-03-17T04:11:32;3.00;;;2.70;;
46000;SDS011;72226;48.272;11.180;2024-03-17T04:13:57;2.72;;;2.13;;
46000;SDS011;72226;48.272;11.180;2024-03-17T04:16:25;5.05;;;3.38;;
46000;SDS011;72226;48.272;11.180;2024-03-17T04:18:50;3.88;;;2.72;;
46000;SDS011;72226;48.272;11.180;2024-03-17T04:21:16;3.13;;;2.80;;
46000;SDS011;72226;48.272;11.180;2024-03-17T04:23:41;4.75;;;3.25;;
46000;SDS011;72226;48.272;11.180;2024-03-17T04:26:06;4.03;;;2.63;;
46000;SDS011;72226;48.272;11.180;2024-03-17T04:28:32;6.53;;;3.05;;
46000;SDS011;72226;48.272;11.180;2024-03-17T04:31:05;2.70;;;2.50;;
46000;SDS011;72226;48.272;11.180;2024-03-17T04:33:31;4.00;;;2.83;;
46000;SDS011;72226;48.272;11.180;2024-03-17T04:35:56;6.30;;;2.67;;
46000;SDS011;72226;48.272;11.180;2024-03-17T04:38:21;3.50;;;2.72;;
46000;SDS011;72226;48.272;11.180;2024-03-17T04:40:46;2.80;;;2.40;;
46000;SDS011;72226;48.272;11.180;2024-03-17T04:43:13;5.25;;;3.15;;
46000;SDS011;72226;48.272;11.180;2024-03-17T04:45:38;8.60;;;3.17;;
46000;SDS011;72226;48.272;11.180;2024-03-17T04:48:03;2.83;;;2.60;;
46000;SDS011;72226;48.272;11.180;2024-03-17T04:50:29;3.10;;;2.80;;
46000;SDS011;72226;48.272;11.180;2024-03-17T04:52:57;6.13;;;2.88;;
46000;SDS011;72226;48.272;11.180;2024-03-17T04:55:22;3.30;;;2.67;;
46000;SDS011;72226;48.272;11.180;2024-03-17T04:57:48;3.47;;;2.97;;
46000;SDS011;72226;48.272;11.180;2024-03-17T05:00:13;4.10;;;2.95;;
46000;SDS011;72226;48.272;11.180;2024-03-17T05:02:39;2.33;;;2.13;;
46000;SDS011;72226;48.272;11.180;2024-03-17T05:05:04;2.75;;;2.50;;
46000;SDS011;72226;48.272;11.180;2024-03-17T05:07:30;3.22;;;2.80;;
46000;SDS011;72226;48.272;11.180;2024-03-17T05:09:56;3.75;;;3.45;;
46000;SDS011;72226;48.272;11.180;2024-03-17T05:12:21;8.95;;;2.42;;
46000;SDS011;72226;48.272;11.180;2024-03-17T05:14:46;4.10;;;2.80;;
46000;SDS011;72226;48.272;11.180;2024-03-17T05:17:12;3.85;;;3.13;;
46000;SDS011;72226;48.272;11.180;2024-03-17T05:19:37;2.92;;;2.55;;
46000;SDS011;72226;48.272;11.180;2024-03-17T05:22:02;4.88;;;3.42;;
46000;SDS011;72226;48.272;11.180;2024-03-17T05:24:27;4.25;;;3.30;;
46000;SDS011;72226;48.272;11.180;2024-03-17T05:26:53;2.90;;;2.47;;
46000;SDS011;72226;48.272;11.180;2024-03-17T05:29:18;3.22;;;2.92;;
46000;SDS011;72226;48.272;11.180;2024-03-17T05:31:43;5.63;;;2.63;;
46000;SDS011;72226;48.272;11.180;2024-03-17T05:34:09;2.95;;;2.63;;
46000;SDS011;72226;48.272;11.180;2024-03-17T05:36:35;3.78;;;2.78;;
46000;SDS011;72226;48.272;11.180;2024-03-17T05:39:00;3.65;;;2.88;;
46000;SDS011;72226;48.272;11.180;2024-03-17T05:41:25;5.50;;;3.17;;
46000;SDS011;72226;48.272;11.180;2024-03-17T05:43:51;4.28;;;3.15;;
46000;SDS011;72226;48.272;11.180;2024-03-17T05:46:16;5.45;;;3.22;;
46000;SDS011;72226;48.272;11.180;2024-03-17T05:48:42;3.78;;;2.65;;
46000;SDS011;72226;48.272;11.180;2024-03-17T05:51:11;5.35;;;3.13;;
46000;SDS011;72226;48.272;11.180;2024-03-17T05:53:37;4.22;;;2.55;;
46000;SDS011;72226;48.272;11.180;2024-03-17T05:56:04;4.28;;;3.33;;
46000;SDS011;72226;48.272;11.180;2024-03-17T05:58:32;10.43;;;3.53;;
46000;SDS011;72226;48.272;11.180;2024-03-17T06:00:57;4.10;;;3.72;;
46000;SDS011;72226;48.272;11.180;2024-03-17T06:03:23;4.32;;;3.60;;
46000;SDS011;72226;48.272;11.180;2024-03-17T06:05:48;4.22;;;3.08;;
46000;SDS011;72226;48.272;11.180;2024-03-17T06:08:14;4.20;;;3.45;;
46000;SDS011;72226;48.272;11.180;2024-03-17T06:10:46;4.88;;;2.90;;
46000;SDS011;72226;48.272;11.180;2024-03-17T06:13:14;3.75;;;2.70;;
46000;SDS011;72226;48.272;11.180;2024-03-17T06:15:41;5.13;;;3.00;;
46000;SDS011;72226;48.272;11.180;2024-03-17T06:18:08;6.07;;;3.55;;
46000;SDS011;72226;48.272;11.180;2024-03-17T06:20:35;3.65;;;3.20;;
46000;SDS011;72226;48.272;11.180;2024-03-17T06:23:00;5.97;;;3.63;;
46000;SDS011;72226;48.272;11.180;2024-03-17T06:25:26;5.45;;;4.25;;
46000;SDS011;72226;48.272;11.180;2024-03-17T06:27:51;4.00;;;3.60;;
46000;SDS011;72226;48.272;11.180;2024-03-17T06:30:16;3.95;;;3.42;;
46000;SDS011;72226;48.272;11.180;2024-03-17T06:32:43;8.77;;;4.63;;
46000;SDS011;72226;48.272;11.180;2024-03-17T06:35:10;6.70;;;5.05;;
46000;SDS011;72226;48.272;11.180;2024-03-17T06:37:36;8.13;;;4.15;;
46000;SDS011;72226;48.272;11.180;2024-03-17T06:40:01;6.55;;;3.50;;
46000;SDS011;72226;48.272;11.180;2024-03-17T06:42:28;4.22;;;3.83;;
46000;SDS011;72226;48.272;11.180;2024-03-17T06:44:53;6.13;;;4.35;;
46000;SDS011;72226;48.272;11.180;2024-03-17T06:47:18;7.43;;;5.28;;
46000;SDS011;72226;48.272;11.180;2024-03-17T06:49:44;8.82;;;6.13;;
46000;SDS011;72226;48.272;11.180;2024-03-17T06:52:10;7.95;;;4.97;;
46000;SDS011;72226;48.272;11.180;2024-03-17T06:54:35;8.23;;;5.05;;
46000;SDS011;72226;48.272;11.180;2024-03-17T06:57:00;6.30;;;5.25;;
46000;SDS011;72226;48.272;11.180;2024-03-17T06:59:26;7.90;;;5.88;;
46000;SDS011;72226;48.272;11.180;2024-03-17T07:01:51;8.45;;;6.35;;
46000;SDS011;72226;48.272;11.180;2024-03-17T07:04:16;15.25;;;7.43;;
46000;SDS011;72226;48.272;11.180;2024-03-17T07:06:42;12.02;;;6.85;;
46000;SDS011;72226;48.272;11.180;2024-03-17T07:09:07;11.05;;;7.18;;
46000;SDS011;72226;48.272;11.180;2024-03-17T07:11:33;8.27;;;6.38;;
46000;SDS011;72226;48.272;11.180;2024-03-17T07:13:59;13.15;;;7.00;;
46000;SDS011;72226;48.272;11.180;2024-03-17T07:16:24;11.10;;;7.20;;
46000;SDS011;72226;48.272;11.180;2024-03-17T07:18:52;9.18;;;6.40;;
46000;SDS011;72226;48.272;11.180;2024-03-17T07:21:18;11.50;;;7.90;;
46000;SDS011;72226;48.272;11.180;2024-03-17T07:23:43;8.63;;;6.75;;
46000;SDS011;72226;48.272;11.180;2024-03-17T07:26:08;10.90;;;7.55;;
46000;SDS011;72226;48.272;11.180;2024-03-17T07:28:34;8.30;;;6.20;;
46000;SDS011;72226;48.272;11.180;2024-03-17T07:31:00;8.05;;;6.63;;
46000;SDS011;72226;48.272;11.180;2024-03-17T07:33:25;8.00;;;5.30;;
46000;SDS011;72226;48.272;11.180;2024-03-17T07:35:51;8.85;;;6.70;;
46000;SDS011;72226;48.272;11.180;2024-03-17T07:38:17;8.45;;;6.45;;
46000;SDS011;72226;48.272;11.180;2024-03-17T07:40:43;7.68;;;6.22;;
46000;SDS011;72226;48.272;11.180;2024-03-17T07:43:08;9.32;;;6.43;;
46000;SDS011;72226;48.272;11.180;2024-03-17T07:45:33;10.55;;;7.35;;
46000;SDS011;72226;48.272;11.180;2024-03-17T07:47:59;10.20;;;7.25;;
46000;SDS011;72226;48.272;11.180;2024-03-17T07:50:24;8.57;;;7.25;;
46000;SDS011;72226;48.272;11.180;2024-03-17T07:52:49;7.72;;;5.53;;
46000;SDS011;72226;48.272;11.180;2024-03-17T07:55:15;8.95;;;6.88;;
46000;SDS011;72226;48.272;11.180;2024-03-17T07:57:40;8.88;;;6.95;;
46000;SDS011;72226;48.272;11.180;2024-03-17T08:00:06;7.55;;;6.32;;
46000;SDS011;72226;48.272;11.180;2024-03-17T08:02:41;8.70;;;7.18;;
46000;SDS011;72226;48.272;11.180;2024-03-17T08:05:06;7.78;;;6.95;;
46000;SDS011;72226;48.272;11.180;2024-03-17T08:07:31;8.57;;;7.40;;
46000;SDS011;72226;48.272;11.180;2024-03-17T08:09:57;8.85;;;6.55;;
46000;SDS011;72226;48.272;11.180;2024-03-17T08:12:22;7.85;;;6.43;;
46000;SDS011;72226;48.272;11.180;2024-03-17T08:14:48;8.05;;;5.75;;
46000;SDS011;72226;48.272;11.180;2024-03-17T08:17:13;10.45;;;5.57;;
46000;SDS011;72226;48.272;11.180;2024-03-17T08:19:38;7.28;;;5.72;;
46000;SDS011;72226;48.272;11.180;2024-03-17T08:22:04;6.47;;;5.38;;
46000;SDS011;72226;48.272;11.180;2024-03-17T08:24:29;8.68;;;6.30;;
46000;SDS011;72226;48.272;11.180;2024-03-17T08:26:55;6.72;;;5.03;;
46000;SDS011;72226;48.272;11.180;2024-03-17T08:29:20;8.75;;;6.18;;
46000;SDS011;72226;48.272;11.180;2024-03-17T08:31:45;7.65;;;6.00;;
46000;SDS011;72226;48.272;11.180;2024-03-17T08:34:10;8.10;;;6.10;;
46000;SDS011;72226;48.272;11.180;2024-03-17T08:36:36;7.13;;;4.88;;
46000;SDS011;72226;48.272;11.180;2024-03-17T08:39:01;6.65;;;5.40;;
46000;SDS011;72226;48.272;11.180;2024-03-17T08:41:26;9.18;;;5.55;;
46000;SDS011;72226;48.272;11.180;2024-03-17T08:43:52;7.57;;;5.40;;
46000;SDS011;72226;48.272;11.180;2024-03-17T08:46:17;8.35;;;5.50;;
46000;SDS011;72226;48.272;11.180;2024-03-17T08:48:43;6.63;;;5.10;;
46000;SDS011;72226;48.272;11.180;2024-03-17T08:51:08;7.38;;;4.22;;
46000;SDS011;72226;48.272;11.180;2024-03-17T08:53:34;5.22;;;3.88;;
46000;SDS011;72226;48.272;11.180;2024-03-17T08:56:00;5.82;;;4.07;;
46000;SDS011;72226;48.272;11.180;2024-03-17T08:58:26;7.03;;;4.97;;
46000;SDS011;72226;48.272;11.180;2024-03-17T09:00:51;4.78;;;3.67;;
46000;SDS011;72226;48.272;11.180;2024-03-17T09:03:17;5.97;;;4.63;;
46000;SDS011;72226;48.272;11.180;2024-03-17T09:05:43;9.57;;;4.60;;
46000;SDS011;72226;48.272;11.180;2024-03-17T09:08:14;4.78;;;4.32;;
46000;SDS011;72226;48.272;11.180;2024-03-17T09:10:40;5.13;;;3.78;;
46000;SDS011;72226;48.272;11.180;2024-03-17T09:13:05;5.63;;;3.85;;
46000;SDS011;72226;48.272;11.180;2024-03-17T09:15:31;4.25;;;3.33;;
46000;SDS011;72226;48.272;11.180;2024-03-17T09:17:56;4.13;;;3.72;;
46000;SDS011;72226;48.272;11.180;2024-03-17T09:20:21;3.08;;;2.58;;
46000;SDS011;72226;48.272;11.180;2024-03-17T09:22:46;4.00;;;3.60;;
46000;SDS011;72226;48.272;11.180;2024-03-17T09:25:11;3.78;;;3.20;;
46000;SDS011;72226;48.272;11.180;2024-03-17T09:27:37;3.05;;;2.75;;
46000;SDS011;72226;48.272;11.180;2024-03-17T09:30:05;3.45;;;2.92;;
46000;SDS011;72226;48.272;11.180;2024-03-17T09:32:34;4.40;;;3.15;;
46000;SDS011;72226;48.272;11.180;2024-03-17T09:34:59;5.35;;;2.58;;
46000;SDS011;72226;48.272;11.180;2024-03-17T09:37:24;3.45;;;3.13;;
46000;SDS011;72226;48.272;11.180;2024-03-17T09:39:50;4.90;;;2.90;;
46000;SDS011;72226;48.272;11.180;2024-03-17T09:42:19;3.72;;;2.15;;
46000;SDS011;72226;48.272;11.180;2024-03-17T09:44:47;3.95;;;2.60;;
46000;SDS011;72226;48.272;11.180;2024-03-17T09:47:19;3.25;;;2.58;;
46000;SDS011;72226;48.272;11.180;2024-03-17T09:49:47;3.30;;;2.50;;
46000;SDS011;72226;48.272;11.180;2024-03-17T09:52:23;2.78;;;2.53;;
46000;SDS011;72226;48.272;11.180;2024-03-17T09:54:53;3.65;;;2.88;;
46000;SDS011;72226;48.272;11.180;2024-03-17T09:57:20;2.83;;;1.63;;
46000;SDS011;72226;48.272;11.180;2024-03-17T09:59:50;5.20;;;2.08;;
46000;SDS011;72226;48.272;11.180;2024-03-17T10:02:16;3.50;;;2.25;;
46000;SDS011;72226;48.272;11.180;2024-03-17T10:04:43;4.30;;;2.75;;
46000;SDS011;72226;48.272;11.180;2024-03-17T10:07:08;4.10;;;2.38;;
46000;SDS011;72226;48.272;11.180;2024-03-17T10:09:33;4.18;;;2.70;;
46000;SDS011;72226;48.272;11.180;2024-03-17T10:11:59;5.38;;;2.80;;
46000;SDS011;72226;48.272;11.180;2024-03-17T10:14:24;4.68;;;2.90;;
46000;SDS011;72226;48.272;11.180;2024-03-17T10:16:49;4.10;;;2.75;;
46000;SDS011;72226;48.272;11.180;2024-03-17T10:19:25;4.65;;;2.47;;
46000;SDS011;72226;48.272;11.180;2024-03-17T10:21:57;2.65;;;1.92;;
46000;SDS011;72226;48.272;11.180;2024-03-17T10:24:24;2.13;;;1.92;;
46000;SDS011;72226;48.272;11.180;2024-03-17T10:26:53;1.90;;;1.75;;
46000;SDS011;72226;48.272;11.180;2024-03-17T10:29:22;1.98;;;1.40;;
46000;SDS011;72226;48.272;11.180;2024-03-17T10:31:54;4.32;;;1.98;;
46000;SDS011;72226;48.272;11.180;2024-03-17T10:34:20;4.30;;;2.55;;
46000;SDS011;72226;48.272;11.180;2024-03-17T10:36:49;3.88;;;1.75;;
46000;SDS011;72226;48.272;11.180;2024-03-17T10:39:24;3.15;;;1.80;;
46000;SDS011;72226;48.272;11.180;2024-03-17T10:41:56;5.18;;;2.38;;
46000;SDS011;72226;48.272;11.180;2024-03-17T10:44:22;3.33;;;1.73;;
46000;SDS011;72226;48.272;11.180;2024-03-17T10:46:48;2.20;;;1.80;;
46000;SDS011;72226;48.272;11.180;2024-03-17T10:49:14;1.83;;;1.15;;
46000;SDS011;72226;48.272;11.180;2024-03-17T10:51:41;4.70;;;2.47;;
46000;SDS011;72226;48.272;11.180;2024-03-17T10:54:09;2.03;;;1.67;;
46000;SDS011;72226;48.272;11.180;2024-03-17T10:56:39;1.98;;;1.23;;
46000;SDS011;72226;48.272;11.180;2024-03-17T10:59:05;3.78;;;1.40;;
46000;SDS011;72226;48.272;11.180;2024-03-17T11:01:32;4.13;;;2.30;;
46000;SDS011;72226;48.272;11.180;2024-03-17T11:03:58;4.03;;;1.83;;
46000;SDS011;72226;48.272;11.180;2024-03-17T11:06:24;2.05;;;1.58;;
46000;SDS011;72226;48.272;11.180;2024-03-17T11:08:49;2.97;;;2.28;;
46000;SDS011;72226;48.272;11.180;2024-03-17T11:11:14;1.75;;;1.02;;
46000;SDS011;72226;48.272;11.180;2024-03-17T11:14:18;3.55;;;2.05;;
46000;SDS011;72226;48.272;11.180;2024-03-17T11:16:44;3.28;;;1.55;;
46000;SDS011;72226;48.272;11.180;2024-03-17T11:19:12;3.05;;;1.52;;
46000;SDS011;72226;48.272;11.180;2024-03-17T11:21:39;2.00;;;1.63;;
46000;SDS011;72226;48.272;11.180;2024-03-17T11:24:04;2.13;;;1.20;;
46000;SDS011;72226;48.272;11.180;2024-03-17T11:26:31;5.28;;;1.73;;
46000;SDS011;72226;48.272;11.180;2024-03-17T11:28:56;2.95;;;1.38;;
46000;SDS011;72226;48.272;11.180;2024-03-17T11:31:36;1.88;;;1.30;;
46000;SDS011;72226;48.272;11.180;2024-03-17T11:34:05;2.58;;;1.67;;
46000;SDS011;72226;48.272;11.180;2024-03-17T11:36:36;3.65;;;2.13;;
46000;SDS011;72226;48.272;11.180;2024-03-17T11:39:02;2.63;;;1.13;;
46000;SDS011;72226;48.272;11.180;2024-03-17T11:49:31;6.25;;;2.22;;
46000;SDS011;72226;48.272;11.180;2024-03-17T11:51:57;2.35;;;0.90;;
46000;SDS011;72226;48.272;11.180;2024-03-17T11:54:24;4.43;;;0.95;;
46000;SDS011;72226;48.272;11.180;2024-03-17T11:56:52;1.25;;;0.90;;
46000;SDS011;72226;48.272;11.180;2024-03-17T11:59:18;7.28;;;1.67;;
46000;SDS011;72226;48.272;11.180;2024-03-17T12:01:47;2.47;;;1.58;;
46000;SDS011;72226;48.272;11.180;2024-03-17T12:04:13;1.83;;;0.80;;
46000;SDS011;72226;48.272;11.180;2024-03-17T12:06:38;2.00;;;1.13;;
46000;SDS011;72226;48.272;11.180;2024-03-17T12:09:17;2.97;;;1.63;;
46000;SDS011;72226;48.272;11.180;2024-03-17T12:11:43;2.28;;;1.00;;
46000;SDS011;72226;48.272;11.180;2024-03-17T12:14:12;3.15;;;0.90;;
46000;SDS011;72226;48.272;11.180;2024-03-17T12:16:45;1.98;;;1.00;;
46000;SDS011;72226;48.272;11.180;2024-03-17T12:19:11;2.53;;;0.80;;
46000;SDS011;72226;48.272;11.180;2024-03-17T12:21:37;2.30;;;0.88;;
46000;SDS011;72226;48.272;11.180;2024-03-17T12:24:05;4.45;;;1.02;;
46000;SDS011;72226;48.272;11.180;2024-03-17T12:26:33;1.75;;;1.00;;
46000;SDS011;72226;48.272;11.180;2024-03-17T12:29:00;3.10;;;1.25;;
46000;SDS011;72226;48.272;11.180;2024-03-17T12:31:25;2.40;;;1.00;;
46000;SDS011;72226;48.272;11.180;2024-03-17T12:33:51;2.00;;;0.85;;
46000;SDS011;72226;48.272;11.180;2024-03-17T12:36:16;2.33;;;1.20;;
46000;SDS011;72226;48.272;11.180;2024-03-17T12:38:41;3.13;;;1.10;;
46000;SDS011;72226;48.272;11.180;2024-03-17T12:41:15;2.33;;;0.90;;
46000;SDS011;72226;48.272;11.180;2024-03-17T12:43:48;3.20;;;0.98;;
46000;SDS011;72226;48.272;11.180;2024-03-17T12:46:13;4.57;;;1.23;;
46000;SDS011;72226;48.272;11.180;2024-03-17T12:48:38;1.40;;;0.70;;
46000;SDS011;72226;48.272;11.180;2024-03-17T12:51:04;3.08;;;1.63;;
46000;SDS011;72226;48.272;11.180;2024-03-17T12:53:29;3.70;;;0.90;;
46000;SDS011;72226;48.272;11.180;2024-03-17T12:55:54;2.35;;;0.80;;
46000;SDS011;72226;48.272;11.180;2024-03-17T12:58:38;1.45;;;0.98;;
46000;SDS011;72226;48.272;11.180;2024-03-17T13:01:22;4.10;;;0.93;;
46000;SDS011;72226;48.272;11.180;2024-03-17T13:03:47;2.80;;;1.00;;
46000;SDS011;72226;48.272;11.180;2024-03-17T13:06:21;2.38;;;1.50;;
46000;SDS011;72226;48.272;11.180;2024-03-17T13:08:49;3.22;;;1.55;;
46000;SDS011;72226;48.272;11.180;2024-03-17T13:11:14;2.65;;;1.35;;
46000;SDS011;72226;48.272;11.180;2024-03-17T13:13:40;1.58;;;0.98;;
46000;SDS011;72226;48.272;11.180;2024-03-17T13:16:05;4.38;;;1.73;;
46000;SDS011;72226;48.272;11.180;2024-03-17T13:18:31;1.80;;;1.13;;
46000;SDS011;72226;48.272;11.180;2024-03-17T13:20:57;2.67;;;0.93;;
46000;SDS011;72226;48.272;11.180;2024-03-17T13:23:24;2.42;;;0.80;;
46000;SDS011;72226;48.272;11.180;2024-03-17T13:25:49;2.15;;;0.80;;
46000;SDS011;72226;48.272;11.180;2024-03-17T13:28:15;3.10;;;1.00;;
46000;SDS011;72226;48.272;11.180;2024-03-17T13:30:40;2.58;;;1.25;;
46000;SDS011;72226;48.272;11.180;2024-03-17T13:33:06;2.85;;;1.38;;
46000;SDS011;72226;48.272;11.180;2024-03-17T13:35:35;2.97;;;1.30;;
46000;SDS011;72226;48.272;11.180;2024-03-17T13:38:04;4.00;;;3.10;;
46000;SDS011;72226;48.272;11.180;2024-03-17T13:40:29;3.28;;;1.42;;
46000;SDS011;72226;48.272;11.180;2024-03-17T13:42:56;3.40;;;1.27;;
46000;SDS011;72226;48.272;11.180;2024-03-17T13:45:22;1.83;;;0.90;;
46000;SDS011;72226;48.272;11.180;2024-03-17T13:47:52;4.05;;;1.20;;
46000;SDS011;72226;48.272;11.180;2024-03-17T13:50:18;4.00;;;0.73;;
46000;SDS011;72226;48.272;11.180;2024-03-17T13:52:43;2.78;;;1.00;;
46000;SDS011;72226;48.272;11.180;2024-03-17T13:55:13;7.13;;;1.30;;
46000;SDS011;72226;48.272;11.180;2024-03-17T13:57:39;1.60;;;0.68;;
46000;SDS011;72226;48.272;11.180;2024-03-17T14:00:04;2.92;;;0.90;;
46000;SDS011;72226;48.272;11.180;2024-03-17T14:02:32;2.03;;;0.63;;
46000;SDS011;72226;48.272;11.180;2024-03-17T14:04:57;1.67;;;0.70;;
46000;SDS011;72226;48.272;11.180;2024-03-17T14:07:23;3.10;;;1.17;;
46000;SDS011;72226;48.272;11.180;2024-03-17T14:09:48;4.55;;;1.33;;
46000;SDS011;72226;48.272;11.180;2024-03-17T14:12:13;5.18;;;0.90;;
46000;SDS011;72226;48.272;11.180;2024-03-17T14:14:39;2.67;;;1.13;;
46000;SDS011;72226;48.272;11.180;2024-03-17T14:17:04;4.18;;;1.13;;
46000;SDS011;72226;48.272;11.180;2024-03-17T14:19:30;2.03;;;0.70;;
46000;SDS011;72226;48.272;11.180;2024-03-17T14:21:55;2.33;;;0.85;;
46000;SDS011;72226;48.272;11.180;2024-03-17T14:24:20;4.25;;;0.98;;
46000;SDS011;72226;48.272;11.180;2024-03-17T14:26:46;0.80;;;0.55;;
46000;SDS011;72226;48.272;11.180;2024-03-17T14:29:11;1.83;;;0.68;;
46000;SDS011;72226;48.272;11.180;2024-03-17T14:31:37;3.67;;;0.95;;
46000;SDS011;72226;48.272;11.180;2024-03-17T14:34:03;5.30;;;1.13;;
46000;SDS011;72226;48.272;11.180;2024-03-17T14:36:30;1.27;;;0.65;;